sensor_id;sensor_type;location;lat;lon;timestamp;pressure;altitude;pressure_sealevel;temperature;humidity
43824;BME280;29470;53.550;9.926;2023-07-09T00:02:17;101613.91;;;23.09;54.18
43824;BME280;29470;53.550;9.926;2023-07-09T00:07:23;101614.38;;;22.69;55.54
43824;BME280;29470;53.550;9.926;2023-07-09T00:12:27;101609.22;;;22.72;55.50
43824;BME280;29470;53.550;9.926;2023-07-09T00:17:32;101616.56;;;22.82;54.90
43824;BME280;29470;53.550;9.926;2023-07-09T00:22:36;101620.88;;;22.78;54.88
43824;BME280;29470;53.550;9.926;2023-07-09T00:27:39;101611.31;;;22.82;55.11
43824;BME280;29470;53.550;9.926;2023-07-09T00:32:43;101612.03;;;22.78;55.22
43824;BME280;29470;53.550;9.926;2023-07-09T00:37:46;101619.47;;;22.90;55.06
43824;BME280;29470;53.550;9.926;2023-07-09T00:42:53;101623.91;;;22.91;54.64
43824;BME280;29470;53.550;9.926;2023-07-09T00:48:00;101615.09;;;22.39;55.63
43824;BME280;29470;53.550;9.926;2023-07-09T00:53:08;101620.72;;;22.48;54.79
43824;BME280;29470;53.550;9.926;2023-07-09T00:58:14;101611.19;;;22.27;55.91
43824;BME280;29470;53.550;9.926;2023-07-09T01:03:23;101611.84;;;22.72;54.82
43824;BME280;29470;53.550;9.926;2023-07-09T01:08:32;101606.50;;;22.18;55.27
43824;BME280;29470;53.550;9.926;2023-07-09T01:13:36;101604.75;;;22.19;55.45
43824;BME280;29470;53.550;9.926;2023-07-09T01:18:42;101596.44;;;22.32;54.88
43824;BME280;29470;53.550;9.926;2023-07-09T01:23:48;101596.81;;;22.43;54.20
43824;BME280;29470;53.550;9.926;2023-07-09T01:28:52;101596.50;;;22.34;54.60
43824;BME280;29470;53.550;9.926;2023-07-09T01:33:55;101598.13;;;22.30;54.22
43824;BME280;29470;53.550;9.926;2023-07-09T01:39:01;101611.69;;;22.17;54.70
43824;BME280;29470;53.550;9.926;2023-07-09T01:44:06;101614.13;;;21.86;55.44
43824;BME280;29470;53.550;9.926;2023-07-09T01:49:09;101609.78;;;21.87;55.30
43824;BME280;29470;53.550;9.926;2023-07-09T01:54:13;101621.50;;;21.95;54.55
43824;BME280;29470;53.550;9.926;2023-07-09T01:59:18;101609.97;;;22.17;53.95
43824;BME280;29470;53.550;9.926;2023-07-09T02:04:22;101608.38;;;21.72;54.72
43824;BME280;29470;53.550;9.926;2023-07-09T02:09:30;101599.63;;;21.98;54.34
43824;BME280;29470;53.550;9.926;2023-07-09T02:14:33;101601.19;;;21.68;55.02
43824;BME280;29470;53.550;9.926;2023-07-09T02:19:36;101596.88;;;21.70;54.72
43824;BME280;29470;53.550;9.926;2023-07-09T02:24:40;101603.38;;;21.80;54.24
43824;BME280;29470;53.550;9.926;2023-07-09T02:29:43;101607.41;;;21.70;53.89
43824;BME280;29470;53.550;9.926;2023-07-09T02:34:47;101606.28;;;21.63;53.92
43824;BME280;29470;53.550;9.926;2023-07-09T02:39:52;101594.53;;;21.78;53.85
43824;BME280;29470;53.550;9.926;2023-07-09T02:44:55;101594.97;;;21.43;54.62
43824;BME280;29470;53.550;9.926;2023-07-09T02:50:01;101605.44;;;21.65;53.77
43824;BME280;29470;53.550;9.926;2023-07-09T02:55:06;101606.47;;;21.92;52.75
43824;BME280;29470;53.550;9.926;2023-07-09T03:00:10;101600.25;;;21.90;52.75
43824;BME280;29470;53.550;9.926;2023-07-09T03:05:13;101602.53;;;21.58;53.16
43824;BME280;29470;53.550;9.926;2023-07-09T03:10:17;101610.75;;;21.21;54.25
43824;BME280;29470;53.550;9.926;2023-07-09T03:15:20;101603.75;;;21.44;53.54
43824;BME280;29470;53.550;9.926;2023-07-09T03:20:23;101608.66;;;21.57;52.54
43824;BME280;29470;53.550;9.926;2023-07-09T03:25:28;101605.66;;;21.25;53.51
43824;BME280;29470;53.550;9.926;2023-07-09T03:30:30;101612.13;;;21.33;53.22
43824;BME280;29470;53.550;9.926;2023-07-09T03:35:33;101619.50;;;21.65;52.21
43824;BME280;29470;53.550;9.926;2023-07-09T03:40:39;101622.91;;;21.62;52.04
43824;BME280;29470;53.550;9.926;2023-07-09T03:45:44;101616.75;;;21.39;52.30
43824;BME280;29470;53.550;9.926;2023-07-09T03:50:48;101623.56;;;21.34;51.91
43824;BME280;29470;53.550;9.926;2023-07-09T03:55:55;101626.47;;;21.63;52.03
43824;BME280;29470;53.550;9.926;2023-07-09T04:00:58;101621.09;;;21.61;51.30
43824;BME280;29470;53.550;9.926;2023-07-09T04:06:01;101621.91;;;21.60;51.01
43824;BME280;29470;53.550;9.926;2023-07-09T04:11:06;101629.78;;;21.82;50.95
43824;BME280;29470;53.550;9.926;2023-07-09T04:16:09;101624.28;;;21.75;50.65
43824;BME280;29470;53.550;9.926;2023-07-09T04:21:13;101626.13;;;21.55;51.05
43824;BME280;29470;53.550;9.926;2023-07-09T04:26:17;101626.94;;;21.54;50.81
43824;BME280;29470;53.550;9.926;2023-07-09T04:31:20;101631.88;;;21.68;50.53
43824;BME280;29470;53.550;9.926;2023-07-09T04:36:23;101629.47;;;21.74;50.04
43824;BME280;29470;53.550;9.926;2023-07-09T04:41:28;101626.06;;;21.54;50.84
43824;BME280;29470;53.550;9.926;2023-07-09T04:46:31;101625.66;;;21.66;50.13
43824;BME280;29470;53.550;9.926;2023-07-09T04:51:34;101617.84;;;21.67;49.86
43824;BME280;29470;53.550;9.926;2023-07-09T04:56:38;101606.41;;;22.15;48.68
43824;BME280;29470;53.550;9.926;2023-07-09T05:01:41;101623.16;;;22.17;48.00
43824;BME280;29470;53.550;9.926;2023-07-09T05:06:44;101621.22;;;22.37;47.17
43824;BME280;29470;53.550;9.926;2023-07-09T05:11:49;101626.81;;;22.47;46.91
43824;BME280;29470;53.550;9.926;2023-07-09T05:16:53;101628.59;;;22.46;46.89
43824;BME280;29470;53.550;9.926;2023-07-09T05:21:56;101627.47;;;22.65;46.40
43824;BME280;29470;53.550;9.926;2023-07-09T05:27:00;101625.25;;;22.52;47.08
43824;BME280;29470;53.550;9.926;2023-07-09T05:32:03;101629.53;;;22.74;46.71
43824;BME280;29470;53.550;9.926;2023-07-09T05:37:06;101622.84;;;22.34;47.29
43824;BME280;29470;53.550;9.926;2023-07-09T05:42:10;101627.63;;;22.70;47.15
43824;BME280;29470;53.550;9.926;2023-07-09T05:47:13;101624.94;;;22.96;46.14
43824;BME280;29470;53.550;9.926;2023-07-09T05:52:16;101616.38;;;23.31;46.06
43824;BME280;29470;53.550;9.926;2023-07-09T05:57:21;101625.75;;;22.93;46.68
43824;BME280;29470;53.550;9.926;2023-07-09T06:02:24;101620.50;;;23.22;45.91
43824;BME280;29470;53.550;9.926;2023-07-09T06:07:27;101619.78;;;23.57;45.35
43824;BME280;29470;53.550;9.926;2023-07-09T06:12:31;101617.22;;;23.59;45.77
43824;BME280;29470;53.550;9.926;2023-07-09T06:17:34;101616.59;;;24.65;44.11
43824;BME280;29470;53.550;9.926;2023-07-09T06:22:37;101610.53;;;25.06;43.09
43824;BME280;29470;53.550;9.926;2023-07-09T06:27:41;101619.91;;;25.71;42.36
43824;BME280;29470;53.550;9.926;2023-07-09T06:32:44;101623.88;;;25.11;43.22
43824;BME280;29470;53.550;9.926;2023-07-09T06:37:47;101631.16;;;25.59;42.61
43824;BME280;29470;53.550;9.926;2023-07-09T06:42:51;101631.63;;;25.83;42.14
43824;BME280;29470;53.550;9.926;2023-07-09T06:47:59;101622.13;;;26.39;41.75
43824;BME280;29470;53.550;9.926;2023-07-09T06:53:02;101633.16;;;27.19;40.57
43824;BME280;29470;53.550;9.926;2023-07-09T06:58:06;101634.41;;;27.47;39.99
43824;BME280;29470;53.550;9.926;2023-07-09T07:03:10;101622.16;;;27.57;39.60
43824;BME280;29470;53.550;9.926;2023-07-09T07:08:14;101621.13;;;27.47;39.82
43824;BME280;29470;53.550;9.926;2023-07-09T07:13:19;101617.28;;;27.93;39.28
43824;BME280;29470;53.550;9.926;2023-07-09T07:18:21;101620.16;;;28.12;39.02
43824;BME280;29470;53.550;9.926;2023-07-09T07:23:25;101626.19;;;28.89;37.77
43824;BME280;29470;53.550;9.926;2023-07-09T07:28:29;101627.53;;;29.67;36.75
43824;BME280;29470;53.550;9.926;2023-07-09T07:33:32;101611.69;;;30.25;35.98
43824;BME280;29470;53.550;9.926;2023-07-09T07:38:34;101606.16;;;32.91;32.98
43824;BME280;29470;53.550;9.926;2023-07-09T07:43:39;101615.25;;;33.56;31.10
43824;BME280;29470;53.550;9.926;2023-07-09T07:48:41;101606.56;;;35.09;28.90
43824;BME280;29470;53.550;9.926;2023-07-09T07:53:44;101612.25;;;35.81;28.19
43824;BME280;29470;53.550;9.926;2023-07-09T07:58:48;101608.03;;;38.31;26.23
43824;BME280;29470;53.550;9.926;2023-07-09T08:03:53;101614.13;;;36.17;27.38
43824;BME280;29470;53.550;9.926;2023-07-09T08:08:55;101612.69;;;37.71;26.12
43824;BME280;29470;53.550;9.926;2023-07-09T08:14:00;101605.41;;;35.24;28.70
43824;BME280;29470;53.550;9.926;2023-07-09T08:19:03;101599.94;;;34.27;30.31
43824;BME280;29470;53.550;9.926;2023-07-09T08:24:06;101600.28;;;35.12;28.81
43824;BME280;29470;53.550;9.926;2023-07-09T08:29:13;101603.22;;;35.42;28.63
43824;BME280;29470;53.550;9.926;2023-07-09T08:34:15;101609.38;;;33.23;31.41
43824;BME280;29470;53.550;9.926;2023-07-09T08:39:18;101610.72;;;31.44;34.00
43824;BME280;29470;53.550;9.926;2023-07-09T08:50:00;101611.25;;;29.10;37.50
43824;BME280;29470;53.550;9.926;2023-07-09T08:55:07;101601.50;;;29.15;38.99
43824;BME280;29470;53.550;9.926;2023-07-09T09:00:16;101599.06;;;29.52;38.03
43824;BME280;29470;53.550;9.926;2023-07-09T09:05:21;101590.72;;;28.92;38.72
43824;BME280;29470;53.550;9.926;2023-07-09T09:10:29;101592.69;;;29.33;37.65
43824;BME280;29470;53.550;9.926;2023-07-09T09:15:41;101588.16;;;29.12;38.56
43824;BME280;29470;53.550;9.926;2023-07-09T09:20:55;101588.88;;;28.83;38.71
43824;BME280;29470;53.550;9.926;2023-07-09T09:26:00;101592.81;;;29.50;38.42
43824;BME280;29470;53.550;9.926;2023-07-09T09:31:16;101584.59;;;29.10;38.86
43824;BME280;29470;53.550;9.926;2023-07-09T09:36:25;101573.00;;;28.99;38.82
43824;BME280;29470;53.550;9.926;2023-07-09T09:41:30;101590.97;;;29.37;38.08
43824;BME280;29470;53.550;9.926;2023-07-09T09:46:36;101579.63;;;29.94;37.46
43824;BME280;29470;53.550;9.926;2023-07-09T09:51:40;101577.88;;;30.11;37.01
43824;BME280;29470;53.550;9.926;2023-07-09T09:56:47;101583.25;;;30.88;36.34
43824;BME280;29470;53.550;9.926;2023-07-09T10:01:58;101578.84;;;30.59;36.98
43824;BME280;29470;53.550;9.926;2023-07-09T10:07:05;101570.78;;;30.38;37.02
43824;BME280;29470;53.550;9.926;2023-07-09T10:12:30;101568.00;;;31.28;36.13
43824;BME280;29470;53.550;9.926;2023-07-09T10:17:40;101574.34;;;30.78;37.00
43824;BME280;29470;53.550;9.926;2023-07-09T10:22:50;101584.13;;;30.12;37.46
43824;BME280;29470;53.550;9.926;2023-07-09T10:33:27;101570.81;;;30.69;36.85
43824;BME280;29470;53.550;9.926;2023-07-09T10:38:44;101567.22;;;30.91;36.83
43824;BME280;29470;53.550;9.926;2023-07-09T10:43:57;101568.03;;;31.13;35.55
43824;BME280;29470;53.550;9.926;2023-07-09T10:49:04;101560.88;;;31.34;35.96
43824;BME280;29470;53.550;9.926;2023-07-09T10:54:15;101564.47;;;31.06;36.65
43824;BME280;29470;53.550;9.926;2023-07-09T10:59:26;101562.66;;;31.27;36.67
43824;BME280;29470;53.550;9.926;2023-07-09T11:04:36;101558.25;;;31.06;36.95
43824;BME280;29470;53.550;9.926;2023-07-09T11:09:43;101542.66;;;31.98;36.50
43824;BME280;29470;53.550;9.926;2023-07-09T11:14:51;101552.81;;;32.66;35.78
43824;BME280;29470;53.550;9.926;2023-07-09T11:19:59;101557.59;;;33.22;35.09
43824;BME280;29470;53.550;9.926;2023-07-09T11:25:08;101552.75;;;33.51;34.74
43824;BME280;29470;53.550;9.926;2023-07-09T11:30:19;101546.50;;;33.53;34.19
43824;BME280;29470;53.550;9.926;2023-07-09T11:35:25;101536.38;;;33.03;34.92
43824;BME280;29470;53.550;9.926;2023-07-09T11:40:28;101536.53;;;32.89;34.93
43824;BME280;29470;53.550;9.926;2023-07-09T11:45:32;101532.03;;;32.93;33.99
43824;BME280;29470;53.550;9.926;2023-07-09T11:50:39;101525.34;;;33.27;33.14
43824;BME280;29470;53.550;9.926;2023-07-09T11:55:45;101518.91;;;33.43;33.03
43824;BME280;29470;53.550;9.926;2023-07-09T12:00:50;101521.13;;;33.74;31.14
43824;BME280;29470;53.550;9.926;2023-07-09T12:05:57;101514.03;;;33.70;30.70
43824;BME280;29470;53.550;9.926;2023-07-09T12:11:02;101511.38;;;33.70;30.80
43824;BME280;29470;53.550;9.926;2023-07-09T12:16:20;101511.13;;;33.86;30.86
43824;BME280;29470;53.550;9.926;2023-07-09T12:21:26;101498.50;;;33.92;31.11
43824;BME280;29470;53.550;9.926;2023-07-09T12:26:31;101487.47;;;34.11;30.38
43824;BME280;29470;53.550;9.926;2023-07-09T12:31:34;101492.78;;;34.14;30.23
43824;BME280;29470;53.550;9.926;2023-07-09T12:36:39;101480.22;;;34.18;30.59
43824;BME280;29470;53.550;9.926;2023-07-09T12:41:44;101477.09;;;34.41;30.07
43824;BME280;29470;53.550;9.926;2023-07-09T12:46:49;101474.50;;;34.36;30.01
43824;BME280;29470;53.550;9.926;2023-07-09T12:51:55;101473.59;;;35.27;29.27
43824;BME280;29470;53.550;9.926;2023-07-09T12:56:59;101476.53;;;34.71;30.35
43824;BME280;29470;53.550;9.926;2023-07-09T13:02:11;101476.56;;;34.69;30.12
43824;BME280;29470;53.550;9.926;2023-07-09T13:07:31;101472.25;;;35.07;29.60
43824;BME280;29470;53.550;9.926;2023-07-09T13:12:38;101472.53;;;34.92;30.39
43824;BME280;29470;53.550;9.926;2023-07-09T13:17:42;101470.84;;;34.39;29.52
43824;BME280;29470;53.550;9.926;2023-07-09T13:22:46;101464.41;;;34.95;29.64
43824;BME280;29470;53.550;9.926;2023-07-09T13:27:49;101451.59;;;35.09;29.89
43824;BME280;29470;53.550;9.926;2023-07-09T13:32:55;101454.41;;;34.58;29.86
43824;BME280;29470;53.550;9.926;2023-07-09T13:37:59;101454.38;;;34.59;29.84
43824;BME280;29470;53.550;9.926;2023-07-09T13:43:02;101446.34;;;34.11;30.39
43824;BME280;29470;53.550;9.926;2023-07-09T13:48:12;101454.63;;;34.47;29.59
43824;BME280;29470;53.550;9.926;2023-07-09T13:53:18;101452.38;;;35.15;28.65
43824;BME280;29470;53.550;9.926;2023-07-09T13:58:24;101457.41;;;34.41;29.40
43824;BME280;29470;53.550;9.926;2023-07-09T14:03:31;101454.44;;;34.56;29.13
43824;BME280;29470;53.550;9.926;2023-07-09T14:08:35;101448.13;;;35.03;28.96
43824;BME280;29470;53.550;9.926;2023-07-09T14:13:39;101431.44;;;34.43;29.49
43824;BME280;29470;53.550;9.926;2023-07-09T14:18:42;101419.56;;;34.06;29.79
43824;BME280;29470;53.550;9.926;2023-07-09T14:23:46;101408.09;;;34.46;29.38
43824;BME280;29470;53.550;9.926;2023-07-09T14:28:49;101401.03;;;34.41;28.90
43824;BME280;29470;53.550;9.926;2023-07-09T14:33:52;101404.97;;;34.68;28.57
43824;BME280;29470;53.550;9.926;2023-07-09T14:38:56;101393.00;;;35.24;29.01
43824;BME280;29470;53.550;9.926;2023-07-09T14:43:59;101397.63;;;35.19;28.19
43824;BME280;29470;53.550;9.926;2023-07-09T14:49:02;101394.47;;;34.96;27.73
43824;BME280;29470;53.550;9.926;2023-07-09T14:54:14;101393.75;;;34.90;27.47
43824;BME280;29470;53.550;9.926;2023-07-09T14:59:23;101386.00;;;35.17;27.60
43824;BME280;29470;53.550;9.926;2023-07-09T15:04:29;101386.72;;;35.25;26.97
43824;BME280;29470;53.550;9.926;2023-07-09T15:09:36;101373.97;;;34.94;27.99
43824;BME280;29470;53.550;9.926;2023-07-09T15:14:39;101359.84;;;34.42;27.17
43824;BME280;29470;53.550;9.926;2023-07-09T15:19:42;101364.09;;;33.56;28.24
43824;BME280;29470;53.550;9.926;2023-07-09T15:24:46;101354.25;;;33.57;28.99
43824;BME280;29470;53.550;9.926;2023-07-09T15:29:49;101335.31;;;33.64;28.98
43824;BME280;29470;53.550;9.926;2023-07-09T15:34:52;101321.31;;;33.50;28.70
43824;BME280;29470;53.550;9.926;2023-07-09T15:39:57;101321.41;;;33.44;28.08
43824;BME280;29470;53.550;9.926;2023-07-09T15:44:59;101309.00;;;33.37;28.84
43824;BME280;29470;53.550;9.926;2023-07-09T15:50:07;101299.25;;;33.31;28.67
43824;BME280;29470;53.550;9.926;2023-07-09T15:55:19;101309.09;;;33.82;28.36
43824;BME280;29470;53.550;9.926;2023-07-09T16:00:25;101298.09;;;33.47;28.55
43824;BME280;29470;53.550;9.926;2023-07-09T16:05:29;101293.00;;;34.28;28.49
43824;BME280;29470;53.550;9.926;2023-07-09T16:10:33;101272.56;;;33.75;28.59
43824;BME280;29470;53.550;9.926;2023-07-09T16:15:36;101267.78;;;33.91;28.43
43824;BME280;29470;53.550;9.926;2023-07-09T16:20:39;101258.09;;;33.84;28.95
43824;BME280;29470;53.550;9.926;2023-07-09T16:25:43;101264.63;;;33.69;28.57
43824;BME280;29470;53.550;9.926;2023-07-09T16:30:48;101251.81;;;33.85;28.46
43824;BME280;29470;53.550;9.926;2023-07-09T16:35:53;101267.56;;;33.56;28.39
43824;BME280;29470;53.550;9.926;2023-07-09T16:40:58;101291.09;;;33.87;28.41
43824;BME280;29470;53.550;9.926;2023-07-09T16:46:01;101287.31;;;33.52;29.14
43824;BME280;29470;53.550;9.926;2023-07-09T16:51:04;101294.56;;;33.47;29.11
43824;BME280;29470;53.550;9.926;2023-07-09T16:56:10;101294.91;;;33.24;29.54
43824;BME280;29470;53.550;9.926;2023-07-09T17:01:14;101313.34;;;33.45;29.21
43824;BME280;29470;53.550;9.926;2023-07-09T17:06:16;101316.91;;;33.46;29.43
43824;BME280;29470;53.550;9.926;2023-07-09T17:11:21;101321.94;;;33.10;30.41
43824;BME280;29470;53.550;9.926;2023-07-09T17:16:23;101312.41;;;32.88;31.35
43824;BME280;29470;53.550;9.926;2023-07-09T17:21:26;101315.19;;;32.81;31.39
43824;BME280;29470;53.550;9.926;2023-07-09T17:26:30;101311.22;;;33.08;31.60
43824;BME280;29470;53.550;9.926;2023-07-09T17:31:33;101301.94;;;32.71;32.10
43824;BME280;29470;53.550;9.926;2023-07-09T17:36:36;101309.41;;;33.10;32.07
43824;BME280;29470;53.550;9.926;2023-07-09T17:41:40;101317.19;;;32.66;33.05
43824;BME280;29470;53.550;9.926;2023-07-09T17:46:44;101307.66;;;32.43;33.65
43824;BME280;29470;53.550;9.926;2023-07-09T17:51:47;101317.69;;;32.24;33.63
43824;BME280;29470;53.550;9.926;2023-07-09T17:56:53;101302.44;;;32.36;34.06
43824;BME280;29470;53.550;9.926;2023-07-09T18:01:59;101302.34;;;32.42;33.87
43824;BME280;29470;53.550;9.926;2023-07-09T18:07:21;101295.25;;;32.36;33.92
43824;BME280;29470;53.550;9.926;2023-07-09T18:12:27;101294.81;;;31.97;34.35
43824;BME280;29470;53.550;9.926;2023-07-09T18:17:32;101298.38;;;31.96;34.83
43824;BME280;29470;53.550;9.926;2023-07-09T18:22:36;101314.03;;;31.44;35.07
43824;BME280;29470;53.550;9.926;2023-07-09T18:27:42;101320.16;;;31.55;34.94
43824;BME280;29470;53.550;9.926;2023-07-09T18:32:46;101328.25;;;31.48;35.06
43824;BME280;29470;53.550;9.926;2023-07-09T18:37:55;101328.06;;;31.66;34.61
43824;BME280;29470;53.550;9.926;2023-07-09T18:43:00;101322.28;;;31.08;35.57
43824;BME280;29470;53.550;9.926;2023-07-09T18:48:12;101322.31;;;31.07;36.09
43824;BME280;29470;53.550;9.926;2023-07-09T18:53:16;101313.50;;;30.92;36.38
43824;BME280;29470;53.550;9.926;2023-07-09T18:58:24;101304.25;;;31.43;36.39
43824;BME280;29470;53.550;9.926;2023-07-09T19:03:32;101311.56;;;31.13;37.92
43824;BME280;29470;53.550;9.926;2023-07-09T19:08:36;101309.88;;;30.98;39.07
43824;BME280;29470;53.550;9.926;2023-07-09T19:13:43;101308.38;;;30.50;40.55
43824;BME280;29470;53.550;9.926;2023-07-09T19:18:46;101319.00;;;30.61;41.31
43824;BME280;29470;53.550;9.926;2023-07-09T19:23:49;101327.16;;;30.19;42.52
43824;BME280;29470;53.550;9.926;2023-07-09T19:28:53;101330.69;;;30.23;42.84
43824;BME280;29470;53.550;9.926;2023-07-09T19:33:56;101346.72;;;30.13;42.64
43824;BME280;29470;53.550;9.926;2023-07-09T19:38:59;101364.53;;;30.13;43.04
43824;BME280;29470;53.550;9.926;2023-07-09T19:44:03;101357.38;;;30.17;43.00
43824;BME280;29470;53.550;9.926;2023-07-09T19:49:08;101414.25;;;30.37;42.15
43824;BME280;29470;53.550;9.926;2023-07-09T19:54:13;101497.88;;;30.11;42.97
43824;BME280;29470;53.550;9.926;2023-07-09T19:59:18;101514.66;;;29.50;45.20
43824;BME280;29470;53.550;9.926;2023-07-09T20:04:22;101586.97;;;27.77;52.25
43824;BME280;29470;53.550;9.926;2023-07-09T20:09:27;101626.94;;;26.65;67.31
43824;BME280;29470;53.550;9.926;2023-07-09T20:14:31;101654.38;;;25.33;77.02
43824;BME280;29470;53.550;9.926;2023-07-09T20:19:34;101687.38;;;25.46;77.57
43824;BME280;29470;53.550;9.926;2023-07-09T20:24:38;101704.81;;;25.39;78.26
43824;BME280;29470;53.550;9.926;2023-07-09T20:29:43;101683.53;;;25.35;75.37
43824;BME280;29470;53.550;9.926;2023-07-09T20:34:50;101708.97;;;25.28;75.26
43824;BME280;29470;53.550;9.926;2023-07-09T20:39:54;101704.50;;;25.25;73.66
43824;BME280;29470;53.550;9.926;2023-07-09T20:44:58;101722.03;;;25.20;74.60
43824;BME280;29470;53.550;9.926;2023-07-09T20:50:01;101714.47;;;25.36;73.25
43824;BME280;29470;53.550;9.926;2023-07-09T20:55:05;101723.28;;;24.99;74.86
43824;BME280;29470;53.550;9.926;2023-07-09T21:00:17;101704.38;;;25.21;74.49
43824;BME280;29470;53.550;9.926;2023-07-09T21:05:21;101677.31;;;25.33;73.33
43824;BME280;29470;53.550;9.926;2023-07-09T21:10:26;101689.56;;;25.27;76.05
43824;BME280;29470;53.550;9.926;2023-07-09T21:15:31;101681.19;;;25.09;76.68
43824;BME280;29470;53.550;9.926;2023-07-09T21:20:34;101681.91;;;24.68;82.20
43824;BME280;29470;53.550;9.926;2023-07-09T21:25:37;101702.81;;;24.26;87.06
43824;BME280;29470;53.550;9.926;2023-07-09T21:30:41;101697.72;;;24.02;91.20
43824;BME280;29470;53.550;9.926;2023-07-09T21:35:46;101684.38;;;23.68;95.16
43824;BME280;29470;53.550;9.926;2023-07-09T21:40:50;101685.16;;;23.64;100.00
43824;BME280;29470;53.550;9.926;2023-07-09T21:45:56;101648.41;;;23.72;100.00
43824;BME280;29470;53.550;9.926;2023-07-09T21:50:59;101635.91;;;23.66;100.00
43824;BME280;29470;53.550;9.926;2023-07-09T21:56:03;101608.09;;;23.47;100.00
43824;BME280;29470;53.550;9.926;2023-07-09T22:01:15;101559.75;;;23.50;100.00
43824;BME280;29470;53.550;9.926;2023-07-09T22:06:18;101525.91;;;23.36;100.00
43824;BME280;29470;53.550;9.926;2023-07-09T22:11:23;101527.78;;;23.41;100.00
43824;BME280;29470;53.550;9.926;2023-07-09T22:16:29;101498.50;;;23.31;100.00
43824;BME280;29470;53.550;9.926;2023-07-09T22:21:32;101476.84;;;23.43;100.00
43824;BME280;29470;53.550;9.926;2023-07-09T22:26:35;101475.22;;;23.18;100.00
43824;BME280;29470;53.550;9.926;2023-07-09T22:31:41;101494.81;;;22.97;100.00
43824;BME280;29470;53.550;9.926;2023-07-09T22:36:45;101490.06;;;23.43;100.00
43824;BME280;29470;53.550;9.926;2023-07-09T22:41:48;101480.84;;;23.29;100.00
43824;BME280;29470;53.550;9.926;2023-07-09T22:46:53;101481.22;;;23.12;100.00
43824;BME280;29470;53.550;9.926;2023-07-09T22:51:55;101462.69;;;23.10;100.00
43824;BME280;29470;53.550;9.926;2023-07-09T22:56:58;101450.16;;;23.03;100.00
43824;BME280;29470;53.550;9.926;2023-07-09T23:02:05;101462.75;;;22.82;100.00
43824;BME280;29470;53.550;9.926;2023-07-09T23:07:11;101468.19;;;22.59;100.00
43824;BME280;29470;53.550;9.926;2023-07-09T23:12:15;101452.41;;;22.60;100.00
43824;BME280;29470;53.550;9.926;2023-07-09T23:17:19;101447.03;;;22.57;100.00
43824;BME280;29470;53.550;9.926;2023-07-09T23:22:22;101454.63;;;22.46;100.00
43824;BME280;29470;53.550;9.926;2023-07-09T23:27:25;101463.38;;;22.45;100.00
43824;BME280;29470;53.550;9.926;2023-07-09T23:32:31;101463.97;;;22.64;100.00
43824;BME280;29470;53.550;9.926;2023-07-09T23:37:34;101460.75;;;22.45;100.00
43824;BME280;29470;53.550;9.926;2023-07-09T23:42:37;101460.09;;;22.53;100.00
43824;BME280;29470;53.550;9.926;2023-07-09T23:47:42;101462.66;;;22.51;100.00
43824;BME280;29470;53.550;9.926;2023-07-09T23:52:47;101455.91;;;22.32;100.00
43824;BME280;29470;53.550;9.926;2023-07-09T23:57:53;101449.47;;;22.49;100.00
